sensor_id;sensor_type;location;lat;lon;timestamp;P1;durP1;ratioP1;P2;durP2;ratioP2
64313;SDS011;50650;48.180;11.524;2023-04-25T00:01:59;2.92;;;1.15;;
64313;SDS011;50650;48.180;11.524;2023-04-25T00:04:26;2.92;;;1.10;;
64313;SDS011;50650;48.180;11.524;2023-04-25T00:06:54;2.85;;;1.17;;
64313;SDS011;50650;48.180;11.524;2023-04-25T00:09:22;3.00;;;1.10;;
64313;SDS011;50650;48.180;11.524;2023-04-25T00:11:48;3.85;;;0.98;;
64313;SDS011;50650;48.180;11.524;2023-04-25T00:14:15;2.13;;;1.10;;
64313;SDS011;50650;48.180;11.524;2023-04-25T00:16:41;2.22;;;1.10;;
64313;SDS011;50650;48.180;11.524;2023-04-25T00:19:09;2.70;;;0.98;;
64313;SDS011;50650;48.180;11.524;2023-04-25T00:21:35;3.13;;;1.27;;
64313;SDS011;50650;48.180;11.524;2023-04-25T00:24:02;2.42;;;1.10;;
64313;SDS011;50650;48.180;11.524;2023-04-25T00:26:31;3.53;;;1.58;;
64313;SDS011;50650;48.180;11.524;2023-04-25T00:28:57;3.03;;;1.20;;
64313;SDS011;50650;48.180;11.524;2023-04-25T00:31:24;4.22;;;1.10;;
64313;SDS011;50650;48.180;11.524;2023-04-25T00:33:51;2.38;;;1.20;;
64313;SDS011;50650;48.180;11.524;2023-04-25T00:36:18;2.55;;;0.93;;
64313;SDS011;50650;48.180;11.524;2023-04-25T00:38:44;3.05;;;1.00;;
64313;SDS011;50650;48.180;11.524;2023-04-25T00:41:11;2.10;;;0.80;;
64313;SDS011;50650;48.180;11.524;2023-04-25T00:43:39;2.50;;;1.20;;
64313;SDS011;50650;48.180;11.524;2023-04-25T00:46:05;2.00;;;0.93;;
64313;SDS011;50650;48.180;11.524;2023-04-25T00:48:32;2.75;;;1.05;;
64313;SDS011;50650;48.180;11.524;2023-04-25T00:50:58;5.95;;;1.13;;
64313;SDS011;50650;48.180;11.524;2023-04-25T00:53:25;1.80;;;0.90;;
64313;SDS011;50650;48.180;11.524;2023-04-25T00:55:53;3.10;;;1.00;;
64313;SDS011;50650;48.180;11.524;2023-04-25T00:58:20;1.58;;;1.05;;
64313;SDS011;50650;48.180;11.524;2023-04-25T01:00:49;3.92;;;1.10;;
64313;SDS011;50650;48.180;11.524;2023-04-25T01:03:17;1.92;;;1.05;;
64313;SDS011;50650;48.180;11.524;2023-04-25T01:05:44;2.20;;;1.02;;
64313;SDS011;50650;48.180;11.524;2023-04-25T01:08:12;3.30;;;1.00;;
64313;SDS011;50650;48.180;11.524;2023-04-25T01:10:39;4.25;;;1.10;;
64313;SDS011;50650;48.180;11.524;2023-04-25T01:13:06;2.58;;;0.95;;
64313;SDS011;50650;48.180;11.524;2023-04-25T01:15:32;2.22;;;1.05;;
64313;SDS011;50650;48.180;11.524;2023-04-25T01:18:01;2.60;;;1.02;;
64313;SDS011;50650;48.180;11.524;2023-04-25T01:20:28;3.53;;;1.30;;
64313;SDS011;50650;48.180;11.524;2023-04-25T01:22:57;2.30;;;1.10;;
64313;SDS011;50650;48.180;11.524;2023-04-25T01:25:23;2.70;;;1.23;;
64313;SDS011;50650;48.180;11.524;2023-04-25T01:27:50;1.70;;;1.08;;
64313;SDS011;50650;48.180;11.524;2023-04-25T01:30:16;1.35;;;1.00;;
64313;SDS011;50650;48.180;11.524;2023-04-25T01:32:43;1.73;;;1.10;;
64313;SDS011;50650;48.180;11.524;2023-04-25T01:35:11;3.17;;;1.25;;
64313;SDS011;50650;48.180;11.524;2023-04-25T01:37:38;2.85;;;1.05;;
64313;SDS011;50650;48.180;11.524;2023-04-25T01:40:06;4.70;;;1.50;;
64313;SDS011;50650;48.180;11.524;2023-04-25T01:42:35;1.40;;;0.95;;
64313;SDS011;50650;48.180;11.524;2023-04-25T01:45:03;2.30;;;1.23;;
64313;SDS011;50650;48.180;11.524;2023-04-25T01:47:30;2.22;;;1.30;;
64313;SDS011;50650;48.180;11.524;2023-04-25T01:49:57;3.97;;;1.20;;
64313;SDS011;50650;48.180;11.524;2023-04-25T01:52:23;2.63;;;1.60;;
64313;SDS011;50650;48.180;11.524;2023-04-25T01:54:50;1.75;;;1.10;;
64313;SDS011;50650;48.180;11.524;2023-04-25T01:57:18;1.50;;;1.00;;
64313;SDS011;50650;48.180;11.524;2023-04-25T01:59:44;1.75;;;1.10;;
64313;SDS011;50650;48.180;11.524;2023-04-25T02:02:12;1.92;;;1.40;;
64313;SDS011;50650;48.180;11.524;2023-04-25T02:04:38;1.60;;;1.27;;
64313;SDS011;50650;48.180;11.524;2023-04-25T02:07:04;1.27;;;1.10;;
64313;SDS011;50650;48.180;11.524;2023-04-25T02:09:31;1.80;;;1.00;;
64313;SDS011;50650;48.180;11.524;2023-04-25T02:11:57;1.60;;;1.00;;
64313;SDS011;50650;48.180;11.524;2023-04-25T02:14:26;5.65;;;1.30;;
64313;SDS011;50650;48.180;11.524;2023-04-25T02:16:53;2.30;;;1.55;;
64313;SDS011;50650;48.180;11.524;2023-04-25T02:19:20;2.67;;;1.10;;
64313;SDS011;50650;48.180;11.524;2023-04-25T02:21:46;2.60;;;1.10;;
64313;SDS011;50650;48.180;11.524;2023-04-25T02:24:12;1.88;;;1.02;;
64313;SDS011;50650;48.180;11.524;2023-04-25T02:26:39;3.20;;;1.25;;
64313;SDS011;50650;48.180;11.524;2023-04-25T02:29:05;1.30;;;1.00;;
64313;SDS011;50650;48.180;11.524;2023-04-25T02:31:33;1.83;;;1.13;;
64313;SDS011;50650;48.180;11.524;2023-04-25T02:34:00;2.25;;;1.20;;
64313;SDS011;50650;48.180;11.524;2023-04-25T02:36:26;2.45;;;1.10;;
64313;SDS011;50650;48.180;11.524;2023-04-25T02:38:54;3.38;;;1.15;;
64313;SDS011;50650;48.180;11.524;2023-04-25T02:41:21;3.63;;;1.30;;
64313;SDS011;50650;48.180;11.524;2023-04-25T02:43:47;3.53;;;1.40;;
64313;SDS011;50650;48.180;11.524;2023-04-25T02:46:14;2.35;;;1.20;;
64313;SDS011;50650;48.180;11.524;2023-04-25T02:48:41;3.30;;;1.20;;
64313;SDS011;50650;48.180;11.524;2023-04-25T02:51:08;5.38;;;1.20;;
64313;SDS011;50650;48.180;11.524;2023-04-25T02:53:34;1.33;;;1.00;;
64313;SDS011;50650;48.180;11.524;2023-04-25T02:56:01;3.33;;;1.15;;
64313;SDS011;50650;48.180;11.524;2023-04-25T02:58:28;3.40;;;1.45;;
64313;SDS011;50650;48.180;11.524;2023-04-25T03:00:54;1.63;;;1.00;;
64313;SDS011;50650;48.180;11.524;2023-04-25T03:03:21;2.05;;;0.98;;
64313;SDS011;50650;48.180;11.524;2023-04-25T03:05:48;1.52;;;0.88;;
64313;SDS011;50650;48.180;11.524;2023-04-25T03:08:15;2.15;;;1.00;;
64313;SDS011;50650;48.180;11.524;2023-04-25T03:10:42;3.10;;;1.10;;
64313;SDS011;50650;48.180;11.524;2023-04-25T03:13:08;2.15;;;1.45;;
64313;SDS011;50650;48.180;11.524;2023-04-25T03:15:35;3.20;;;1.38;;
64313;SDS011;50650;48.180;11.524;2023-04-25T03:18:02;5.45;;;1.50;;
64313;SDS011;50650;48.180;11.524;2023-04-25T03:20:29;2.40;;;1.35;;
64313;SDS011;50650;48.180;11.524;2023-04-25T03:22:56;2.70;;;1.10;;
64313;SDS011;50650;48.180;11.524;2023-04-25T03:25:23;2.10;;;1.17;;
64313;SDS011;50650;48.180;11.524;2023-04-25T03:27:49;1.58;;;1.00;;
64313;SDS011;50650;48.180;11.524;2023-04-25T03:30:16;2.20;;;0.82;;
64313;SDS011;50650;48.180;11.524;2023-04-25T03:32:42;3.40;;;1.17;;
64313;SDS011;50650;48.180;11.524;2023-04-25T03:35:09;4.25;;;1.10;;
64313;SDS011;50650;48.180;11.524;2023-04-25T03:37:35;2.95;;;1.17;;
64313;SDS011;50650;48.180;11.524;2023-04-25T03:40:03;2.58;;;1.13;;
64313;SDS011;50650;48.180;11.524;2023-04-25T03:42:31;4.10;;;1.10;;
64313;SDS011;50650;48.180;11.524;2023-04-25T03:44:57;2.97;;;1.00;;
64313;SDS011;50650;48.180;11.524;2023-04-25T03:47:23;2.05;;;1.15;;
64313;SDS011;50650;48.180;11.524;2023-04-25T03:49:50;2.05;;;1.05;;
64313;SDS011;50650;48.180;11.524;2023-04-25T03:52:16;2.50;;;1.05;;
64313;SDS011;50650;48.180;11.524;2023-04-25T03:54:43;3.10;;;1.00;;
64313;SDS011;50650;48.180;11.524;2023-04-25T03:57:11;2.40;;;1.10;;
64313;SDS011;50650;48.180;11.524;2023-04-25T03:59:37;1.20;;;0.85;;
64313;SDS011;50650;48.180;11.524;2023-04-25T04:02:03;1.75;;;0.82;;
64313;SDS011;50650;48.180;11.524;2023-04-25T04:04:30;3.80;;;0.70;;
64313;SDS011;50650;48.180;11.524;2023-04-25T04:06:56;2.35;;;0.90;;
64313;SDS011;50650;48.180;11.524;2023-04-25T04:09:23;2.50;;;1.08;;
64313;SDS011;50650;48.180;11.524;2023-04-25T04:11:50;2.03;;;0.70;;
64313;SDS011;50650;48.180;11.524;2023-04-25T04:14:17;3.47;;;1.02;;
64313;SDS011;50650;48.180;11.524;2023-04-25T04:16:44;2.25;;;0.90;;
64313;SDS011;50650;48.180;11.524;2023-04-25T04:19:11;1.48;;;0.77;;
64313;SDS011;50650;48.180;11.524;2023-04-25T04:21:37;1.65;;;0.70;;
64313;SDS011;50650;48.180;11.524;2023-04-25T04:24:03;3.10;;;0.90;;
64313;SDS011;50650;48.180;11.524;2023-04-25T04:26:31;1.77;;;0.68;;
64313;SDS011;50650;48.180;11.524;2023-04-25T04:28:59;3.78;;;0.90;;
64313;SDS011;50650;48.180;11.524;2023-04-25T04:31:27;2.25;;;0.73;;
64313;SDS011;50650;48.180;11.524;2023-04-25T04:33:55;1.13;;;0.70;;
64313;SDS011;50650;48.180;11.524;2023-04-25T04:36:21;2.78;;;0.90;;
64313;SDS011;50650;48.180;11.524;2023-04-25T04:38:48;2.00;;;0.90;;
64313;SDS011;50650;48.180;11.524;2023-04-25T04:41:14;1.17;;;0.68;;
64313;SDS011;50650;48.180;11.524;2023-04-25T04:43:41;2.63;;;1.05;;
64313;SDS011;50650;48.180;11.524;2023-04-25T04:46:08;2.03;;;0.70;;
64313;SDS011;50650;48.180;11.524;2023-04-25T04:48:36;1.10;;;0.68;;
64313;SDS011;50650;48.180;11.524;2023-04-25T04:51:05;5.10;;;1.00;;
64313;SDS011;50650;48.180;11.524;2023-04-25T04:53:31;2.80;;;0.90;;
64313;SDS011;50650;48.180;11.524;2023-04-25T04:55:58;2.85;;;1.13;;
64313;SDS011;50650;48.180;11.524;2023-04-25T04:58:25;2.78;;;1.08;;
64313;SDS011;50650;48.180;11.524;2023-04-25T05:00:54;1.25;;;0.93;;
64313;SDS011;50650;48.180;11.524;2023-04-25T05:03:20;1.13;;;0.77;;
64313;SDS011;50650;48.180;11.524;2023-04-25T05:05:48;2.22;;;1.05;;
64313;SDS011;50650;48.180;11.524;2023-04-25T05:08:15;2.83;;;1.20;;
64313;SDS011;50650;48.180;11.524;2023-04-25T05:10:41;2.38;;;1.00;;
64313;SDS011;50650;48.180;11.524;2023-04-25T05:13:07;4.50;;;0.90;;
64313;SDS011;50650;48.180;11.524;2023-04-25T05:15:34;3.30;;;1.20;;
64313;SDS011;50650;48.180;11.524;2023-04-25T05:18:00;2.95;;;1.55;;
64313;SDS011;50650;48.180;11.524;2023-04-25T05:20:27;6.97;;;2.13;;
64313;SDS011;50650;48.180;11.524;2023-04-25T05:22:55;8.02;;;2.30;;
64313;SDS011;50650;48.180;11.524;2023-04-25T05:25:21;5.05;;;1.60;;
64313;SDS011;50650;48.180;11.524;2023-04-25T05:27:48;3.33;;;1.38;;
64313;SDS011;50650;48.180;11.524;2023-04-25T05:30:16;3.70;;;1.13;;
64313;SDS011;50650;48.180;11.524;2023-04-25T05:32:42;1.85;;;0.90;;
64313;SDS011;50650;48.180;11.524;2023-04-25T05:35:08;3.00;;;1.02;;
64313;SDS011;50650;48.180;11.524;2023-04-25T05:37:35;4.07;;;1.58;;
64313;SDS011;50650;48.180;11.524;2023-04-25T05:40:03;1.30;;;1.02;;
64313;SDS011;50650;48.180;11.524;2023-04-25T05:42:31;3.35;;;1.40;;
64313;SDS011;50650;48.180;11.524;2023-04-25T05:44:58;5.95;;;2.40;;
64313;SDS011;50650;48.180;11.524;2023-04-25T05:47:24;2.22;;;1.30;;
64313;SDS011;50650;48.180;11.524;2023-04-25T05:49:51;5.35;;;1.48;;
64313;SDS011;50650;48.180;11.524;2023-04-25T05:52:17;1.85;;;1.15;;
64313;SDS011;50650;48.180;11.524;2023-04-25T05:54:44;4.78;;;1.80;;
64313;SDS011;50650;48.180;11.524;2023-04-25T05:57:19;3.28;;;1.60;;
64313;SDS011;50650;48.180;11.524;2023-04-25T05:59:46;3.65;;;1.63;;
64313;SDS011;50650;48.180;11.524;2023-04-25T06:02:13;2.90;;;1.70;;
64313;SDS011;50650;48.180;11.524;2023-04-25T06:04:39;4.25;;;1.75;;
64313;SDS011;50650;48.180;11.524;2023-04-25T06:07:05;5.22;;;1.73;;
64313;SDS011;50650;48.180;11.524;2023-04-25T06:09:32;4.45;;;1.88;;
64313;SDS011;50650;48.180;11.524;2023-04-25T06:11:58;4.07;;;1.40;;
64313;SDS011;50650;48.180;11.524;2023-04-25T06:14:27;3.65;;;1.17;;
64313;SDS011;50650;48.180;11.524;2023-04-25T06:16:54;4.30;;;1.27;;
64313;SDS011;50650;48.180;11.524;2023-04-25T06:19:20;2.13;;;1.17;;
64313;SDS011;50650;48.180;11.524;2023-04-25T06:21:46;1.85;;;0.88;;
64313;SDS011;50650;48.180;11.524;2023-04-25T06:24:13;3.30;;;1.10;;
64313;SDS011;50650;48.180;11.524;2023-04-25T06:26:39;3.20;;;1.15;;
64313;SDS011;50650;48.180;11.524;2023-04-25T06:29:05;3.08;;;1.30;;
64313;SDS011;50650;48.180;11.524;2023-04-25T06:31:33;1.48;;;0.70;;
64313;SDS011;50650;48.180;11.524;2023-04-25T06:34:00;4.88;;;1.20;;
64313;SDS011;50650;48.180;11.524;2023-04-25T06:36:27;3.13;;;1.15;;
64313;SDS011;50650;48.180;11.524;2023-04-25T06:38:53;6.20;;;1.08;;
64313;SDS011;50650;48.180;11.524;2023-04-25T06:41:20;3.45;;;1.38;;
64313;SDS011;50650;48.180;11.524;2023-04-25T06:43:47;3.00;;;1.23;;
64313;SDS011;50650;48.180;11.524;2023-04-25T06:46:13;4.15;;;1.15;;
64313;SDS011;50650;48.180;11.524;2023-04-25T06:48:41;3.35;;;1.10;;
64313;SDS011;50650;48.180;11.524;2023-04-25T06:51:07;4.32;;;1.60;;
64313;SDS011;50650;48.180;11.524;2023-04-25T06:53:34;4.47;;;1.42;;
64313;SDS011;50650;48.180;11.524;2023-04-25T06:56:00;5.35;;;1.40;;
64313;SDS011;50650;48.180;11.524;2023-04-25T06:58:26;5.68;;;1.73;;
64313;SDS011;50650;48.180;11.524;2023-04-25T07:00:53;7.57;;;1.63;;
64313;SDS011;50650;48.180;11.524;2023-04-25T07:03:19;3.67;;;1.42;;
64313;SDS011;50650;48.180;11.524;2023-04-25T07:05:47;3.20;;;1.30;;
64313;SDS011;50650;48.180;11.524;2023-04-25T07:08:14;2.95;;;1.42;;
64313;SDS011;50650;48.180;11.524;2023-04-25T07:10:40;2.65;;;1.17;;
64313;SDS011;50650;48.180;11.524;2023-04-25T07:13:06;2.88;;;1.08;;
64313;SDS011;50650;48.180;11.524;2023-04-25T07:15:33;5.25;;;1.35;;
64313;SDS011;50650;48.180;11.524;2023-04-25T07:17:59;3.05;;;1.58;;
64313;SDS011;50650;48.180;11.524;2023-04-25T07:20:26;3.42;;;1.25;;
64313;SDS011;50650;48.180;11.524;2023-04-25T07:22:54;5.10;;;1.30;;
64313;SDS011;50650;48.180;11.524;2023-04-25T07:25:20;2.25;;;0.90;;
64313;SDS011;50650;48.180;11.524;2023-04-25T07:27:46;2.92;;;1.08;;
64313;SDS011;50650;48.180;11.524;2023-04-25T07:30:13;3.25;;;1.20;;
64313;SDS011;50650;48.180;11.524;2023-04-25T07:32:40;2.67;;;1.25;;
64313;SDS011;50650;48.180;11.524;2023-04-25T07:35:06;3.40;;;1.17;;
64313;SDS011;50650;48.180;11.524;2023-04-25T07:37:33;2.67;;;1.02;;
64313;SDS011;50650;48.180;11.524;2023-04-25T07:40:01;2.97;;;1.10;;
64313;SDS011;50650;48.180;11.524;2023-04-25T07:42:28;3.40;;;1.50;;
64313;SDS011;50650;48.180;11.524;2023-04-25T07:44:55;5.55;;;1.13;;
64313;SDS011;50650;48.180;11.524;2023-04-25T07:47:21;1.83;;;0.98;;
64313;SDS011;50650;48.180;11.524;2023-04-25T07:49:48;3.05;;;1.05;;
64313;SDS011;50650;48.180;11.524;2023-04-25T07:52:14;3.30;;;1.45;;
64313;SDS011;50650;48.180;11.524;2023-04-25T07:54:41;2.42;;;1.38;;
64313;SDS011;50650;48.180;11.524;2023-04-25T07:57:08;3.42;;;1.23;;
64313;SDS011;50650;48.180;11.524;2023-04-25T07:59:35;4.47;;;1.30;;
64313;SDS011;50650;48.180;11.524;2023-04-25T08:02:01;2.95;;;1.20;;
64313;SDS011;50650;48.180;11.524;2023-04-25T08:04:28;3.60;;;1.30;;
64313;SDS011;50650;48.180;11.524;2023-04-25T08:06:54;3.22;;;1.30;;
64313;SDS011;50650;48.180;11.524;2023-04-25T08:09:21;2.42;;;1.40;;
64313;SDS011;50650;48.180;11.524;2023-04-25T08:11:48;3.17;;;1.40;;
64313;SDS011;50650;48.180;11.524;2023-04-25T08:14:16;3.45;;;1.40;;
64313;SDS011;50650;48.180;11.524;2023-04-25T08:16:42;2.92;;;1.52;;
64313;SDS011;50650;48.180;11.524;2023-04-25T08:19:09;4.70;;;1.70;;
64313;SDS011;50650;48.180;11.524;2023-04-25T08:21:35;3.85;;;1.60;;
64313;SDS011;50650;48.180;11.524;2023-04-25T08:24:02;3.90;;;1.58;;
64313;SDS011;50650;48.180;11.524;2023-04-25T08:26:29;2.55;;;1.20;;
64313;SDS011;50650;48.180;11.524;2023-04-25T08:28:55;3.55;;;1.50;;
64313;SDS011;50650;48.180;11.524;2023-04-25T08:31:23;4.03;;;1.60;;
64313;SDS011;50650;48.180;11.524;2023-04-25T08:33:49;3.45;;;1.20;;
64313;SDS011;50650;48.180;11.524;2023-04-25T08:36:16;2.22;;;1.05;;
64313;SDS011;50650;48.180;11.524;2023-04-25T08:38:43;3.50;;;1.13;;
64313;SDS011;50650;48.180;11.524;2023-04-25T08:41:10;6.13;;;1.42;;
64313;SDS011;50650;48.180;11.524;2023-04-25T08:43:37;3.78;;;1.10;;
64313;SDS011;50650;48.180;11.524;2023-04-25T08:46:03;4.03;;;1.00;;
64313;SDS011;50650;48.180;11.524;2023-04-25T08:48:32;2.95;;;1.10;;
64313;SDS011;50650;48.180;11.524;2023-04-25T08:51:01;1.35;;;1.20;;
64313;SDS011;50650;48.180;11.524;2023-04-25T08:53:29;7.10;;;1.50;;
64313;SDS011;50650;48.180;11.524;2023-04-25T08:55:58;1.63;;;1.00;;
64313;SDS011;50650;48.180;11.524;2023-04-25T08:58:26;2.80;;;1.00;;
64313;SDS011;50650;48.180;11.524;2023-04-25T09:00:53;2.72;;;0.88;;
64313;SDS011;50650;48.180;11.524;2023-04-25T09:03:20;3.00;;;1.23;;
64313;SDS011;50650;48.180;11.524;2023-04-25T09:05:47;2.78;;;0.93;;
64313;SDS011;50650;48.180;11.524;2023-04-25T09:08:15;2.72;;;1.00;;
64313;SDS011;50650;48.180;11.524;2023-04-25T09:10:41;1.88;;;1.10;;
64313;SDS011;50650;48.180;11.524;2023-04-25T09:13:08;2.88;;;0.98;;
64313;SDS011;50650;48.180;11.524;2023-04-25T09:15:46;3.90;;;1.20;;
64313;SDS011;50650;48.180;11.524;2023-04-25T09:18:14;3.15;;;1.02;;
64313;SDS011;50650;48.180;11.524;2023-04-25T09:23:16;2.92;;;0.80;;
64313;SDS011;50650;48.180;11.524;2023-04-25T09:25:44;3.63;;;1.02;;
64313;SDS011;50650;48.180;11.524;2023-04-25T09:28:13;2.05;;;1.00;;
64313;SDS011;50650;48.180;11.524;2023-04-25T09:30:39;1.48;;;0.88;;
64313;SDS011;50650;48.180;11.524;2023-04-25T09:33:06;2.72;;;1.00;;
64313;SDS011;50650;48.180;11.524;2023-04-25T09:35:37;1.23;;;0.90;;
64313;SDS011;50650;48.180;11.524;2023-04-25T09:38:09;3.17;;;1.63;;
64313;SDS011;50650;48.180;11.524;2023-04-25T09:40:40;2.75;;;1.00;;
64313;SDS011;50650;48.180;11.524;2023-04-25T09:43:10;2.67;;;1.10;;
64313;SDS011;50650;48.180;11.524;2023-04-25T09:45:43;1.65;;;0.95;;
64313;SDS011;50650;48.180;11.524;2023-04-25T09:48:10;5.22;;;1.08;;
64313;SDS011;50650;48.180;11.524;2023-04-25T09:50:37;1.48;;;1.00;;
64313;SDS011;50650;48.180;11.524;2023-04-25T09:53:04;2.17;;;1.13;;
64313;SDS011;50650;48.180;11.524;2023-04-25T09:55:33;1.80;;;1.02;;
64313;SDS011;50650;48.180;11.524;2023-04-25T09:58:02;1.23;;;0.70;;
64313;SDS011;50650;48.180;11.524;2023-04-25T10:00:30;3.03;;;1.20;;
64313;SDS011;50650;48.180;11.524;2023-04-25T10:02:57;2.28;;;1.10;;
64313;SDS011;50650;48.180;11.524;2023-04-25T10:05:24;1.67;;;1.20;;
64313;SDS011;50650;48.180;11.524;2023-04-25T10:07:51;1.33;;;0.80;;
64313;SDS011;50650;48.180;11.524;2023-04-25T10:10:18;7.50;;;1.02;;
64313;SDS011;50650;48.180;11.524;2023-04-25T10:12:52;2.70;;;1.00;;
64313;SDS011;50650;48.180;11.524;2023-04-25T10:15:19;4.10;;;1.10;;
64313;SDS011;50650;48.180;11.524;2023-04-25T10:17:45;2.83;;;0.80;;
64313;SDS011;50650;48.180;11.524;2023-04-25T10:20:12;5.18;;;1.05;;
64313;SDS011;50650;48.180;11.524;2023-04-25T10:22:39;2.05;;;1.00;;
64313;SDS011;50650;48.180;11.524;2023-04-25T10:25:07;3.88;;;1.10;;
64313;SDS011;50650;48.180;11.524;2023-04-25T10:27:35;2.22;;;1.00;;
64313;SDS011;50650;48.180;11.524;2023-04-25T10:30:04;2.90;;;0.90;;
64313;SDS011;50650;48.180;11.524;2023-04-25T10:32:34;1.30;;;0.90;;
64313;SDS011;50650;48.180;11.524;2023-04-25T10:35:11;2.33;;;0.82;;
64313;SDS011;50650;48.180;11.524;2023-04-25T10:40:29;4.97;;;1.20;;
64313;SDS011;50650;48.180;11.524;2023-04-25T10:42:56;1.55;;;1.00;;
64313;SDS011;50650;48.180;11.524;2023-04-25T10:46:15;2.05;;;0.75;;
64313;SDS011;50650;48.180;11.524;2023-04-25T10:48:48;1.70;;;1.00;;
64313;SDS011;50650;48.180;11.524;2023-04-25T10:51:16;1.42;;;0.80;;
64313;SDS011;50650;48.180;11.524;2023-04-25T10:53:44;2.47;;;0.93;;
64313;SDS011;50650;48.180;11.524;2023-04-25T10:56:11;2.28;;;0.95;;
64313;SDS011;50650;48.180;11.524;2023-04-25T10:58:41;3.67;;;1.02;;
64313;SDS011;50650;48.180;11.524;2023-04-25T11:01:08;3.95;;;1.13;;
64313;SDS011;50650;48.180;11.524;2023-04-25T11:03:39;2.30;;;0.98;;
64313;SDS011;50650;48.180;11.524;2023-04-25T11:06:07;2.92;;;1.08;;
64313;SDS011;50650;48.180;11.524;2023-04-25T11:08:47;1.90;;;0.90;;
64313;SDS011;50650;48.180;11.524;2023-04-25T11:11:14;2.45;;;1.00;;
64313;SDS011;50650;48.180;11.524;2023-04-25T11:13:41;1.05;;;0.60;;
64313;SDS011;50650;48.180;11.524;2023-04-25T11:16:08;1.63;;;0.63;;
64313;SDS011;50650;48.180;11.524;2023-04-25T11:18:34;0.60;;;0.50;;
64313;SDS011;50650;48.180;11.524;2023-04-25T11:21:03;2.05;;;0.70;;
64313;SDS011;50650;48.180;11.524;2023-04-25T11:23:30;0.55;;;0.40;;
64313;SDS011;50650;48.180;11.524;2023-04-25T11:25:56;1.58;;;0.80;;
64313;SDS011;50650;48.180;11.524;2023-04-25T11:28:25;2.97;;;0.98;;
64313;SDS011;50650;48.180;11.524;2023-04-25T11:30:52;4.20;;;0.70;;
64313;SDS011;50650;48.180;11.524;2023-04-25T11:33:22;2.10;;;0.90;;
64313;SDS011;50650;48.180;11.524;2023-04-25T11:35:49;1.80;;;0.90;;
64313;SDS011;50650;48.180;11.524;2023-04-25T11:38:17;1.58;;;0.70;;
64313;SDS011;50650;48.180;11.524;2023-04-25T11:40:43;2.55;;;0.70;;
64313;SDS011;50650;48.180;11.524;2023-04-25T11:43:10;1.65;;;0.80;;
64313;SDS011;50650;48.180;11.524;2023-04-25T11:45:36;1.45;;;0.90;;
64313;SDS011;50650;48.180;11.524;2023-04-25T11:48:03;0.68;;;0.60;;
64313;SDS011;50650;48.180;11.524;2023-04-25T11:50:29;2.20;;;0.82;;
64313;SDS011;50650;48.180;11.524;2023-04-25T11:52:56;1.67;;;0.88;;
64313;SDS011;50650;48.180;11.524;2023-04-25T11:55:24;1.38;;;0.70;;
64313;SDS011;50650;48.180;11.524;2023-04-25T11:57:50;2.45;;;1.02;;
64313;SDS011;50650;48.180;11.524;2023-04-25T12:00:17;1.00;;;0.60;;
64313;SDS011;50650;48.180;11.524;2023-04-25T12:02:46;0.70;;;0.50;;
64313;SDS011;50650;48.180;11.524;2023-04-25T12:05:14;1.08;;;0.52;;
64313;SDS011;50650;48.180;11.524;2023-04-25T12:07:41;1.58;;;0.60;;
64313;SDS011;50650;48.180;11.524;2023-04-25T12:10:08;1.63;;;0.50;;
64313;SDS011;50650;48.180;11.524;2023-04-25T12:12:37;1.00;;;0.55;;
64313;SDS011;50650;48.180;11.524;2023-04-25T12:15:08;2.70;;;0.40;;
64313;SDS011;50650;48.180;11.524;2023-04-25T12:17:35;1.05;;;0.50;;
64313;SDS011;50650;48.180;11.524;2023-04-25T12:20:05;1.10;;;0.50;;
64313;SDS011;50650;48.180;11.524;2023-04-25T12:22:33;0.90;;;0.38;;
64313;SDS011;50650;48.180;11.524;2023-04-25T12:25:01;4.88;;;0.52;;
64313;SDS011;50650;48.180;11.524;2023-04-25T12:27:30;0.68;;;0.60;;
64313;SDS011;50650;48.180;11.524;2023-04-25T12:29:58;0.60;;;0.45;;
64313;SDS011;50650;48.180;11.524;2023-04-25T12:32:25;0.95;;;0.40;;
64313;SDS011;50650;48.180;11.524;2023-04-25T12:34:52;3.13;;;0.70;;
64313;SDS011;50650;48.180;11.524;2023-04-25T12:37:18;1.88;;;0.80;;
64313;SDS011;50650;48.180;11.524;2023-04-25T12:39:45;2.13;;;0.88;;
64313;SDS011;50650;48.180;11.524;2023-04-25T12:42:11;0.85;;;0.50;;
64313;SDS011;50650;48.180;11.524;2023-04-25T12:44:38;1.02;;;0.50;;
64313;SDS011;50650;48.180;11.524;2023-04-25T12:47:06;1.20;;;0.50;;
64313;SDS011;50650;48.180;11.524;2023-04-25T12:49:32;1.15;;;0.68;;
64313;SDS011;50650;48.180;11.524;2023-04-25T12:51:59;2.78;;;0.70;;
64313;SDS011;50650;48.180;11.524;2023-04-25T12:54:25;1.00;;;0.50;;
64313;SDS011;50650;48.180;11.524;2023-04-25T12:56:52;1.08;;;0.50;;
64313;SDS011;50650;48.180;11.524;2023-04-25T12:59:18;1.38;;;0.60;;
64313;SDS011;50650;48.180;11.524;2023-04-25T13:01:45;2.13;;;0.88;;
64313;SDS011;50650;48.180;11.524;2023-04-25T13:04:13;1.17;;;0.75;;
64313;SDS011;50650;48.180;11.524;2023-04-25T13:06:39;1.60;;;0.55;;
64313;SDS011;50650;48.180;11.524;2023-04-25T13:09:06;1.73;;;0.70;;
64313;SDS011;50650;48.180;11.524;2023-04-25T13:11:33;1.10;;;0.50;;
64313;SDS011;50650;48.180;11.524;2023-04-25T13:14:00;1.38;;;0.40;;
64313;SDS011;50650;48.180;11.524;2023-04-25T13:16:26;0.80;;;0.60;;
64313;SDS011;50650;48.180;11.524;2023-04-25T13:18:53;1.02;;;0.60;;
64313;SDS011;50650;48.180;11.524;2023-04-25T13:21:22;2.95;;;0.80;;
64313;SDS011;50650;48.180;11.524;2023-04-25T13:23:48;1.90;;;0.50;;
64313;SDS011;50650;48.180;11.524;2023-04-25T13:26:15;1.27;;;0.80;;
64313;SDS011;50650;48.180;11.524;2023-04-25T13:28:41;1.83;;;0.70;;
64313;SDS011;50650;48.180;11.524;2023-04-25T13:31:08;0.75;;;0.60;;
64313;SDS011;50650;48.180;11.524;2023-04-25T13:33:34;2.17;;;0.85;;
64313;SDS011;50650;48.180;11.524;2023-04-25T13:36:01;0.98;;;0.60;;
64313;SDS011;50650;48.180;11.524;2023-04-25T13:38:28;3.20;;;0.60;;
64313;SDS011;50650;48.180;11.524;2023-04-25T13:40:55;1.42;;;0.55;;
64313;SDS011;50650;48.180;11.524;2023-04-25T13:43:22;0.93;;;0.50;;
64313;SDS011;50650;48.180;11.524;2023-04-25T13:45:48;1.80;;;0.70;;
64313;SDS011;50650;48.180;11.524;2023-04-25T13:48:15;1.00;;;0.50;;
64313;SDS011;50650;48.180;11.524;2023-04-25T13:50:41;0.95;;;0.57;;
64313;SDS011;50650;48.180;11.524;2023-04-25T13:53:08;1.80;;;0.47;;
64313;SDS011;50650;48.180;11.524;2023-04-25T13:55:36;0.52;;;0.43;;
64313;SDS011;50650;48.180;11.524;2023-04-25T13:58:03;1.52;;;0.65;;
64313;SDS011;50650;48.180;11.524;2023-04-25T14:00:32;2.15;;;0.77;;
64313;SDS011;50650;48.180;11.524;2023-04-25T14:03:00;1.60;;;0.63;;
64313;SDS011;50650;48.180;11.524;2023-04-25T14:05:29;0.85;;;0.75;;
64313;SDS011;50650;48.180;11.524;2023-04-25T14:07:56;1.30;;;0.77;;
64313;SDS011;50650;48.180;11.524;2023-04-25T14:10:22;1.67;;;0.63;;
64313;SDS011;50650;48.180;11.524;2023-04-25T14:12:50;1.80;;;0.90;;
64313;SDS011;50650;48.180;11.524;2023-04-25T14:15:16;1.20;;;0.70;;
64313;SDS011;50650;48.180;11.524;2023-04-25T14:17:43;2.47;;;0.90;;
64313;SDS011;50650;48.180;11.524;2023-04-25T14:20:10;1.65;;;0.77;;
64313;SDS011;50650;48.180;11.524;2023-04-25T14:22:37;1.13;;;0.70;;
64313;SDS011;50650;48.180;11.524;2023-04-25T14:25:08;1.58;;;0.82;;
64313;SDS011;50650;48.180;11.524;2023-04-25T14:27:35;0.90;;;0.73;;
64313;SDS011;50650;48.180;11.524;2023-04-25T14:30:03;1.00;;;0.80;;
64313;SDS011;50650;48.180;11.524;2023-04-25T14:32:30;0.75;;;0.60;;
64313;SDS011;50650;48.180;11.524;2023-04-25T14:34:57;1.23;;;0.77;;
64313;SDS011;50650;48.180;11.524;2023-04-25T14:37:23;2.25;;;0.63;;
64313;SDS011;50650;48.180;11.524;2023-04-25T14:39:50;1.00;;;0.55;;